Terminal Aerodrome Forecast
Issued by NWS

Home | Current Version | Previous Version | Text Only | Print | Product List | Glossary On
Versions: 1 2 3 4 5 6 7 8 9 10 11 12 13 14 15 16 17 18 19 20 21 22 23 24 25 26 27 28 29 30 31 32 33
000
FTUS44 KFWD 281857 AAA
TAFAFW
TAF AMD
KAFW 281857Z 2819/2918 04010KT P6SM -SHRA VCTS BKN018CB
     FM282000 01010KT P6SM -SHRA BKN022
     FM282200 01012KT P6SM VCSH BKN035
     FM290000 02014KT P6SM FEW035 SCT150=

USA.gov is the U.S. government's official web portal to all federal, state and local government web resources and services.